createdAt,value
2018-05-10T00:02:10.294Z,7.37
2018-05-10T00:04:36.680Z,7.97
2018-05-10T00:07:02.723Z,9.93
2018-05-10T00:09:28.844Z,5.87
2018-05-10T00:11:54.873Z,13.57
2018-05-10T00:14:20.901Z,21.17
2018-05-10T00:16:46.974Z,8.07
2018-05-10T00:19:13.083Z,9.83
2018-05-10T00:21:39.152Z,10.27
2018-05-10T00:24:05.194Z,9.73
2018-05-10T00:26:31.225Z,9.23
2018-05-10T00:28:57.262Z,10.93
2018-05-10T00:31:23.369Z,9.88
2018-05-10T00:33:49.490Z,9.90
2018-05-10T00:36:15.580Z,14.98
2018-05-10T00:38:41.659Z,8.77
2018-05-10T00:41:07.726Z,10.50
2018-05-10T00:43:33.779Z,8.73
2018-05-10T00:45:59.817Z,8.30
2018-05-10T00:48:25.843Z,7.43
2018-05-10T00:50:51.872Z,11.35
2018-05-10T00:53:17.951Z,9.87
2018-05-10T00:55:44.754Z,8.85
2018-05-10T00:58:10.820Z,11.77
2018-05-10T01:00:36.883Z,11.33
2018-05-10T01:03:03.054Z,8.90
2018-05-10T01:05:29.853Z,7.90
2018-05-10T01:07:55.936Z,12.50
2018-05-10T01:10:22.857Z,7.35
2018-05-10T01:12:48.930Z,10.38
2018-05-10T01:15:14.958Z,10.20
2018-05-10T01:17:41.069Z,7.95
2018-05-10T01:20:07.220Z,7.27
2018-05-10T01:22:33.237Z,12.25
2018-05-10T01:24:59.265Z,11.73
2018-05-10T01:27:25.325Z,10.98
2018-05-10T01:29:51.380Z,9.85
2018-05-10T01:32:17.434Z,10.18
2018-05-10T01:34:56.628Z,10.07
2018-05-10T01:37:22.681Z,9.70
2018-05-10T01:39:48.717Z,11.40
2018-05-10T01:42:14.745Z,9.40
2018-05-10T01:44:40.875Z,8.23
2018-05-10T01:47:06.977Z,9.85
2018-05-10T01:49:33.779Z,7.40
2018-05-10T01:51:59.848Z,9.98
2018-05-10T01:54:25.942Z,10.27
2018-05-10T01:56:51.976Z,12.18
2018-05-10T01:59:18.117Z,13.80
2018-05-10T02:01:44.553Z,9.00
2018-05-10T02:04:10.593Z,10.10
2018-05-10T02:06:36.853Z,8.57
2018-05-10T02:09:02.930Z,10.27
2018-05-10T02:11:28.963Z,15.43
2018-05-10T02:13:55.074Z,9.20
2018-05-10T02:16:21.122Z,10.45
2018-05-10T02:18:47.176Z,11.05
2018-05-10T02:21:13.225Z,12.02
2018-05-10T02:23:40.027Z,8.38
2018-05-10T02:26:06.113Z,10.88
2018-05-10T02:28:32.159Z,9.70
2018-05-10T02:30:59.082Z,9.93
2018-05-10T02:33:25.066Z,10.25
2018-05-10T02:35:51.131Z,7.70
2018-05-10T02:38:17.214Z,9.90
2018-05-10T02:43:01.686Z,10.07
2018-05-10T02:45:27.747Z,7.10
2018-05-10T02:47:53.768Z,8.90
2018-05-10T02:50:19.826Z,9.75
2018-05-10T02:52:46.616Z,6.90
2018-05-10T02:55:12.740Z,10.25
2018-05-10T02:57:39.200Z,14.23
2018-05-10T03:00:05.232Z,9.75
2018-05-10T03:02:31.272Z,9.90
2018-05-10T03:04:57.342Z,10.67
2018-05-10T03:07:23.376Z,10.25
2018-05-10T03:09:49.389Z,8.57
2018-05-10T03:12:15.520Z,9.20
2018-05-10T03:14:41.549Z,9.95
2018-05-10T03:17:07.618Z,9.40
2018-05-10T03:19:34.456Z,14.02
2018-05-10T03:22:00.537Z,15.15
2018-05-10T03:24:26.625Z,9.68
2018-05-10T03:26:52.716Z,9.50
2018-05-10T03:29:18.801Z,12.63
2018-05-10T03:31:44.860Z,11.12
2018-05-10T03:34:10.949Z,13.77
2018-05-10T03:36:36.986Z,15.25
2018-05-10T03:39:03.046Z,11.17
2018-05-10T03:41:29.119Z,10.32
2018-05-10T03:43:55.213Z,11.27
2018-05-10T03:46:22.053Z,13.20
2018-05-10T03:48:48.070Z,12.07
2018-05-10T03:51:14.113Z,13.60
2018-05-10T03:53:40.228Z,10.25
2018-05-10T03:56:06.281Z,15.33
2018-05-10T03:58:32.314Z,11.38
2018-05-10T04:00:58.347Z,14.68
2018-05-10T04:03:36.704Z,9.70
2018-05-10T04:06:15.918Z,10.30
2018-05-10T04:08:54.474Z,10.10
2018-05-10T04:11:29.474Z,13.52
2018-05-10T04:13:55.585Z,11.32
2018-05-10T04:16:22.363Z,11.77
2018-05-10T04:18:50.280Z,12.98
2018-05-10T04:21:17.076Z,9.00
2018-05-10T04:23:44.013Z,12.43
2018-05-10T04:26:10.823Z,9.30
2018-05-10T04:28:36.963Z,17.27
2018-05-10T04:31:03.033Z,12.30
2018-05-10T04:33:29.130Z,12.88
2018-05-10T04:35:55.190Z,9.82
2018-05-10T04:38:21.277Z,11.85
2018-05-10T04:40:48.092Z,8.95
2018-05-10T04:43:14.141Z,12.03
2018-05-10T04:45:40.677Z,11.40
2018-05-10T04:48:06.815Z,13.30
2018-05-10T04:50:32.824Z,8.18
2018-05-10T04:52:59.001Z,12.68
2018-05-10T04:55:25.950Z,10.30
2018-05-10T04:57:52.261Z,12.40
2018-05-10T05:00:18.364Z,16.33
2018-05-10T05:02:44.381Z,12.23
2018-05-10T05:05:10.433Z,11.10
2018-05-10T05:07:36.509Z,15.73
2018-05-10T05:10:02.578Z,12.30
2018-05-10T05:12:28.745Z,15.53
2018-05-10T05:14:54.795Z,13.05
2018-05-10T05:17:20.822Z,15.30
2018-05-10T05:19:46.885Z,13.38
2018-05-10T05:22:13.686Z,15.32
2018-05-10T05:24:39.752Z,12.00
2018-05-10T05:27:06.841Z,12.55
2018-05-10T05:29:32.913Z,16.90
2018-05-10T05:31:59.360Z,13.05
2018-05-10T05:34:25.432Z,16.87
2018-05-10T05:36:51.468Z,11.70
2018-05-10T05:39:17.507Z,11.53
2018-05-10T05:41:44.292Z,14.15
2018-05-10T05:44:10.377Z,11.57
2018-05-10T05:46:36.436Z,12.30
2018-05-10T05:49:02.490Z,12.60
2018-05-10T05:51:29.284Z,11.13
2018-05-10T05:53:55.490Z,14.00
2018-05-10T05:56:22.252Z,13.53
2018-05-10T05:58:48.351Z,12.97
2018-05-10T06:01:14.392Z,14.40
2018-05-10T06:03:40.463Z,10.33
2018-05-10T06:06:06.558Z,10.40
2018-05-10T06:08:32.658Z,10.73
2018-05-10T06:10:58.673Z,10.43
2018-05-10T06:13:25.777Z,8.87
2018-05-10T06:15:51.927Z,12.07
2018-05-10T06:18:18.009Z,14.00
2018-05-10T06:20:44.793Z,13.07
2018-05-10T06:23:10.869Z,13.30
2018-05-10T06:25:37.048Z,12.73
2018-05-10T06:28:03.165Z,13.47
2018-05-10T06:30:30.345Z,10.70
2018-05-10T06:32:57.158Z,16.50
2018-05-10T06:35:23.234Z,8.67
2018-05-10T06:37:49.570Z,13.03
2018-05-10T06:40:16.643Z,23.27
2018-05-10T06:42:43.422Z,11.30
2018-05-10T06:45:09.469Z,19.30
2018-05-10T06:47:35.538Z,15.43
2018-05-10T06:50:01.603Z,10.37
2018-05-10T06:52:28.567Z,17.60
2018-05-10T06:54:55.382Z,11.20
2018-05-10T06:57:21.572Z,12.23
2018-05-10T06:59:47.883Z,12.40
2018-05-10T07:02:14.029Z,35.03
2018-05-10T07:04:40.276Z,9.60
2018-05-10T07:07:07.153Z,12.90
2018-05-10T07:09:33.364Z,19.13
2018-05-10T07:11:59.588Z,12.23
2018-05-10T07:14:25.868Z,11.30
2018-05-10T07:16:52.655Z,13.23
2018-05-10T07:19:18.956Z,12.53
2018-05-10T07:21:45.740Z,11.93
2018-05-10T07:24:11.772Z,21.73
2018-05-10T07:26:37.873Z,13.30
2018-05-10T07:29:03.940Z,16.90
2018-05-10T07:31:30.036Z,12.67
2018-05-10T07:33:56.062Z,16.67
2018-05-10T07:36:22.089Z,13.07
2018-05-10T07:38:48.146Z,12.23
2018-05-10T07:41:14.170Z,14.77
2018-05-10T07:43:40.215Z,14.48
2018-05-10T07:46:06.263Z,16.03
2018-05-10T07:48:32.287Z,11.77
2018-05-10T07:50:58.325Z,12.82
2018-05-10T07:53:24.384Z,10.90
2018-05-10T07:55:50.423Z,14.10
2018-05-10T07:58:16.447Z,12.15
2018-05-10T08:00:42.585Z,16.12
2018-05-10T08:03:08.637Z,14.20
2018-05-10T08:05:35.408Z,9.63
2018-05-10T08:08:02.209Z,12.65
2018-05-10T08:10:28.235Z,11.15
2018-05-10T08:12:54.252Z,13.93
2018-05-10T08:15:20.280Z,10.10
2018-05-10T08:17:46.319Z,14.98
2018-05-10T08:20:12.321Z,15.10
2018-05-10T08:22:38.448Z,16.87
2018-05-10T08:25:04.480Z,13.60
2018-05-10T08:37:20.476Z,12.10
2018-05-10T08:39:46.549Z,17.37
2018-05-10T08:42:12.580Z,21.53
2018-05-10T08:44:38.745Z,12.80
2018-05-10T08:47:04.826Z,12.93
2018-05-10T08:49:30.882Z,12.37
2018-05-10T08:54:23.032Z,17.90
2018-05-10T08:56:49.069Z,12.83
2018-05-10T08:59:15.154Z,12.47
2018-05-10T09:01:41.193Z,11.60
2018-05-10T09:04:07.255Z,11.87
2018-05-10T09:06:33.316Z,15.80
2018-05-10T09:08:59.421Z,9.50
2018-05-10T09:11:26.213Z,19.27
2018-05-10T09:13:52.270Z,10.60
2018-05-10T09:16:18.382Z,11.30
2018-05-10T09:18:44.433Z,12.37
2018-05-10T09:21:10.497Z,14.60
2018-05-10T09:23:37.375Z,20.73
2018-05-10T09:26:03.689Z,14.80
2018-05-10T09:28:29.743Z,12.30
2018-05-10T09:30:55.849Z,11.30
2018-05-10T09:33:22.141Z,13.93
2018-05-10T09:35:48.950Z,16.70
2018-05-10T09:38:14.993Z,13.00
2018-05-10T09:40:41.062Z,12.07
2018-05-10T09:43:07.102Z,15.70
2018-05-10T09:45:33.879Z,11.17
2018-05-10T09:48:00.710Z,14.00
2018-05-10T09:50:26.773Z,10.43
2018-05-10T09:52:52.877Z,15.37
2018-05-10T09:55:19.094Z,21.57
2018-05-10T09:57:45.105Z,13.20
2018-05-10T10:00:11.236Z,15.63
2018-05-10T10:02:37.283Z,15.43
2018-05-10T10:05:03.376Z,12.98
2018-05-10T10:07:29.431Z,16.70
2018-05-10T10:09:56.234Z,16.35
2018-05-10T10:12:22.300Z,13.90
2018-05-10T10:14:48.360Z,14.90
2018-05-10T10:17:15.162Z,19.10
2018-05-10T10:19:41.276Z,16.67
2018-05-10T10:22:07.311Z,16.12
2018-05-10T10:24:33.340Z,14.40
2018-05-10T10:27:00.138Z,18.17
2018-05-10T10:29:29.231Z,14.13
2018-05-10T10:31:56.081Z,18.60
2018-05-10T10:34:22.185Z,22.57
2018-05-10T10:36:48.218Z,13.73
2018-05-10T10:39:14.990Z,12.93
2018-05-10T10:41:41.829Z,20.33
2018-05-10T10:44:08.681Z,8.73
2018-05-10T10:46:35.453Z,11.33
2018-05-10T10:49:01.510Z,11.20
2018-05-10T10:51:27.563Z,13.80
2018-05-10T10:53:53.660Z,13.10
2018-05-10T10:56:19.673Z,11.73
2018-05-10T10:58:45.767Z,12.30
2018-05-10T11:01:11.877Z,17.83
2018-05-10T11:03:38.692Z,14.30
2018-05-10T11:06:04.741Z,13.13
2018-05-10T11:08:30.796Z,17.43
2018-05-10T11:10:56.879Z,12.80
2018-05-10T11:13:22.955Z,15.17
2018-05-10T11:15:49.013Z,11.40
2018-05-10T11:18:16.714Z,12.60
2018-05-10T11:20:43.080Z,11.20
2018-05-10T11:23:09.165Z,13.40
2018-05-10T11:25:36.023Z,13.20
2018-05-10T11:28:02.728Z,8.27
2018-05-10T11:30:28.905Z,29.70
2018-05-10T11:32:54.985Z,17.87
2018-05-10T11:35:21.327Z,14.23
2018-05-10T11:37:47.386Z,15.20
2018-05-10T11:40:13.477Z,31.17
2018-05-10T11:42:39.527Z,15.57
2018-05-10T11:45:06.335Z,11.23
2018-05-10T11:47:32.384Z,7.53
2018-05-10T11:49:58.513Z,12.23
2018-05-10T11:52:24.557Z,17.87
2018-05-10T11:54:50.601Z,13.33
2018-05-10T11:57:17.574Z,14.03
2018-05-10T11:59:43.693Z,22.60
2018-05-10T12:02:09.855Z,12.33
2018-05-10T12:04:37.321Z,15.03
2018-05-10T12:07:04.179Z,13.93
2018-05-10T12:09:31.096Z,28.73
2018-05-10T12:11:57.254Z,14.53
2018-05-10T12:14:23.362Z,56.33
2018-05-10T12:16:49.472Z,12.27
2018-05-10T12:19:15.593Z,8.63
2018-05-10T12:21:41.587Z,11.43
2018-05-10T12:24:07.926Z,10.97
2018-05-10T12:26:34.160Z,16.37
2018-05-10T12:29:00.259Z,17.00
2018-05-10T12:31:27.176Z,13.00
2018-05-10T12:33:53.271Z,17.70
2018-05-10T12:36:19.292Z,18.90
2018-05-10T12:38:46.299Z,21.00
2018-05-10T12:41:12.426Z,43.70
2018-05-10T12:43:38.732Z,55.83
2018-05-10T12:46:05.040Z,51.83
2018-05-10T12:48:31.176Z,79.82
2018-05-10T12:50:57.441Z,79.47
2018-05-10T12:53:23.496Z,59.57
2018-05-10T12:55:50.297Z,76.87
2018-05-10T12:58:16.323Z,83.13
2018-05-10T13:00:42.509Z,80.10
2018-05-10T13:03:09.373Z,81.35
2018-05-10T13:05:35.451Z,77.77
2018-05-10T13:08:01.554Z,73.13
2018-05-10T13:10:28.405Z,61.90
2018-05-10T13:12:55.295Z,72.00
2018-05-10T13:15:21.457Z,73.67
2018-05-10T13:17:47.703Z,58.37
2018-05-10T13:20:13.821Z,57.40
2018-05-10T13:22:39.996Z,62.13
2018-05-10T13:25:07.347Z,59.43
2018-05-10T13:27:33.417Z,54.30
2018-05-10T13:30:00.233Z,52.73
2018-05-10T13:32:26.297Z,57.27
2018-05-10T13:34:52.326Z,64.17
2018-05-10T13:37:18.353Z,65.53
2018-05-10T13:39:44.371Z,61.80
2018-05-10T13:42:10.498Z,51.73
2018-05-10T13:44:36.846Z,52.93
2018-05-10T13:47:02.958Z,57.33
2018-05-10T13:49:28.975Z,50.43
2018-05-10T13:51:55.273Z,49.20
2018-05-10T13:54:21.320Z,54.70
2018-05-10T13:56:47.517Z,42.77
2018-05-10T13:59:14.364Z,50.80
2018-05-10T14:01:40.538Z,45.93
2018-05-10T14:04:06.659Z,47.90
2018-05-10T14:06:33.467Z,42.17
2018-05-10T14:08:59.535Z,40.00
2018-05-10T14:11:26.336Z,48.50
2018-05-10T14:13:52.410Z,56.30
2018-05-10T14:16:18.474Z,55.07
2018-05-10T14:18:44.509Z,41.30
2018-05-10T14:21:10.588Z,47.80
2018-05-10T14:23:36.655Z,40.10
2018-05-10T14:26:02.664Z,50.43
2018-05-10T14:28:28.748Z,50.90
2018-05-10T14:30:54.809Z,46.87
2018-05-10T14:33:21.605Z,43.93
2018-05-10T14:35:47.651Z,44.87
2018-05-10T14:38:13.711Z,26.10
2018-05-10T14:50:23.764Z,35.33
2018-05-10T14:52:49.832Z,28.77
2018-05-10T14:55:15.884Z,32.40
2018-05-10T14:57:41.935Z,35.53
2018-05-10T15:00:08.737Z,28.00
2018-05-10T15:02:34.820Z,36.37
2018-05-10T15:05:01.622Z,35.53
2018-05-10T15:07:27.650Z,30.40
2018-05-10T15:09:53.749Z,31.87
2018-05-10T15:12:19.828Z,29.97
2018-05-10T15:14:45.877Z,33.57
2018-05-10T15:17:18.964Z,30.40
2018-05-10T15:19:45.009Z,26.30
2018-05-10T15:22:11.069Z,29.03
2018-05-10T15:24:37.138Z,30.90
2018-05-10T15:27:03.174Z,34.70
2018-05-10T15:29:29.283Z,30.43
2018-05-10T15:31:55.392Z,36.20
2018-05-10T15:34:21.709Z,38.73
2018-05-10T15:36:48.519Z,36.07
2018-05-10T15:39:14.618Z,39.17
2018-05-10T15:41:40.690Z,32.53
2018-05-10T15:44:06.714Z,38.47
2018-05-10T15:46:32.782Z,42.67
2018-05-10T15:48:58.885Z,34.20
2018-05-10T15:51:24.964Z,31.97
2018-05-10T15:53:51.019Z,26.90
2018-05-10T15:56:17.786Z,26.63
2018-05-10T15:58:43.818Z,32.47
2018-05-10T16:01:10.722Z,19.23
2018-05-10T16:03:36.807Z,20.47
2018-05-10T16:06:03.662Z,21.67
2018-05-10T16:08:30.536Z,21.57
2018-05-10T16:10:56.658Z,30.33
2018-05-10T16:13:23.517Z,23.70
2018-05-10T16:15:50.327Z,29.53
2018-05-10T16:18:16.398Z,17.27
2018-05-10T16:20:42.507Z,16.20
2018-05-10T16:23:08.622Z,23.97
2018-05-10T16:25:34.658Z,18.10
2018-05-10T16:28:01.218Z,14.90
2018-05-10T16:30:27.365Z,12.77
2018-05-10T16:32:53.476Z,12.57
2018-05-10T16:35:19.638Z,20.87
2018-05-10T16:37:45.754Z,10.50
2018-05-10T16:40:11.831Z,17.40
2018-05-10T16:42:38.713Z,21.87
2018-05-10T16:45:04.810Z,14.97
2018-05-10T16:47:30.941Z,11.50
2018-05-10T16:49:56.964Z,7.87
2018-05-10T16:52:23.059Z,20.70
2018-05-10T16:54:49.131Z,15.10
2018-05-10T16:57:15.148Z,8.83
2018-05-10T16:59:42.924Z,12.00
2018-05-10T17:02:09.123Z,21.70
2018-05-10T17:04:35.239Z,15.53
2018-05-10T17:07:01.274Z,23.80
2018-05-10T17:09:27.351Z,12.37
2018-05-10T17:11:53.435Z,15.03
2018-05-10T17:14:20.467Z,9.83
2018-05-10T17:16:46.549Z,10.57
2018-05-10T17:19:12.614Z,14.00
2018-05-10T17:21:38.796Z,11.80
2018-05-10T17:24:05.629Z,13.33
2018-05-10T17:26:31.653Z,14.90
2018-05-10T17:28:57.736Z,14.90
2018-05-10T17:31:24.631Z,20.63
2018-05-10T17:33:50.654Z,22.97
2018-05-10T17:36:16.722Z,20.20
2018-05-10T17:38:42.797Z,18.13
2018-05-10T17:41:09.655Z,11.63
2018-05-10T17:43:36.461Z,18.27
2018-05-10T17:48:29.337Z,14.50
2018-05-10T17:50:55.382Z,14.73
2018-05-10T17:53:21.439Z,18.90
2018-05-10T17:55:47.505Z,22.13
2018-05-10T17:58:13.576Z,17.40
2018-05-10T18:00:39.717Z,16.30
2018-05-10T18:03:05.824Z,8.95
2018-05-10T18:05:32.595Z,9.55
2018-05-10T18:07:58.647Z,12.23
2018-05-10T18:10:24.741Z,13.15
2018-05-10T18:12:50.828Z,15.23
2018-05-10T18:15:16.877Z,22.15
2018-05-10T18:17:42.940Z,22.15
2018-05-10T18:20:09.024Z,17.75
2018-05-10T18:22:35.091Z,22.70
2018-05-10T18:25:01.160Z,14.55
2018-05-10T18:27:27.253Z,22.45
2018-05-10T18:29:53.674Z,17.12
2018-05-10T18:32:20.470Z,12.82
2018-05-10T18:34:46.556Z,12.40
2018-05-10T18:37:12.877Z,14.27
2018-05-10T18:39:38.964Z,13.80
2018-05-10T18:42:05.091Z,20.05
2018-05-10T18:44:31.905Z,28.92
2018-05-10T18:46:57.941Z,17.05
2018-05-10T18:49:24.075Z,13.87
2018-05-10T18:51:50.588Z,18.05
2018-05-10T18:54:16.626Z,15.07
2018-05-10T18:56:42.744Z,18.33
2018-05-10T18:59:09.651Z,17.35
2018-05-10T19:01:35.702Z,17.70
2018-05-10T19:04:02.520Z,18.25
2018-05-10T19:06:28.961Z,18.70
2018-05-10T19:08:55.308Z,18.70
2018-05-10T19:11:21.486Z,21.17
2018-05-10T19:13:47.484Z,27.08
2018-05-10T19:16:13.941Z,18.58
2018-05-10T19:18:40.116Z,17.65
2018-05-10T19:21:06.224Z,16.77
2018-05-10T19:23:32.262Z,16.70
2018-05-10T19:25:58.352Z,14.83
2018-05-10T19:28:25.145Z,16.20
2018-05-10T19:30:51.220Z,16.52
2018-05-10T19:33:17.270Z,25.42
2018-05-10T19:35:43.293Z,18.12
2018-05-10T19:38:09.631Z,14.05
2018-05-10T19:40:35.706Z,11.43
2018-05-10T19:43:01.787Z,13.02
2018-05-10T19:45:27.870Z,14.97
2018-05-10T19:47:53.989Z,14.45
2018-05-10T19:50:20.082Z,15.68
2018-05-10T19:52:46.199Z,17.45
2018-05-10T19:55:13.019Z,20.65
2018-05-10T19:57:39.121Z,21.20
2018-05-10T20:00:05.338Z,23.37
2018-05-10T20:02:31.408Z,19.30
2018-05-10T20:04:57.534Z,21.25
2018-05-10T20:07:23.582Z,17.48
2018-05-10T20:09:49.639Z,19.73
2018-05-10T20:12:15.698Z,17.67
2018-05-10T20:14:41.787Z,16.30
2018-05-10T20:17:07.858Z,18.90
2018-05-10T20:19:33.915Z,15.85
2018-05-10T20:22:28.493Z,21.48
2018-05-10T20:24:54.667Z,17.92
2018-05-10T20:27:20.703Z,16.58
2018-05-10T20:29:47.679Z,14.73
2018-05-10T20:32:14.627Z,20.02
2018-05-10T20:34:42.661Z,16.98
2018-05-10T20:37:08.817Z,15.13
2018-05-10T20:39:34.869Z,15.82
2018-05-10T20:42:01.725Z,20.33
2018-05-10T20:44:27.799Z,18.85
2018-05-10T20:46:53.898Z,14.70
2018-05-10T20:49:19.958Z,14.87
2018-05-10T20:51:51.332Z,16.67
2018-05-10T20:54:17.405Z,14.68
2018-05-10T20:56:43.457Z,14.27
2018-05-10T20:59:09.563Z,15.38
2018-05-10T21:01:35.697Z,20.92
2018-05-10T21:04:01.765Z,19.45
2018-05-10T21:06:28.295Z,19.03
2018-05-10T21:08:54.381Z,21.80
2018-05-10T21:11:20.483Z,19.30
2018-05-10T21:13:46.531Z,19.55
2018-05-10T21:16:12.616Z,16.20
2018-05-10T21:18:39.682Z,17.65
2018-05-10T21:21:06.485Z,11.90
2018-05-10T21:23:32.542Z,18.57
2018-05-10T21:25:58.904Z,20.02
2018-05-10T21:28:25.762Z,17.85
2018-05-10T21:30:52.584Z,15.35
2018-05-10T21:33:18.637Z,16.55
2018-05-10T21:35:44.768Z,15.95
2018-05-10T21:38:10.855Z,14.60
2018-05-10T21:40:36.923Z,14.15
2018-05-10T21:43:02.985Z,17.87
2018-05-10T21:45:29.020Z,14.45
2018-05-10T21:47:55.064Z,18.60
2018-05-10T21:50:26.270Z,13.95
2018-05-10T21:52:52.301Z,19.33
2018-05-10T21:55:18.344Z,16.98
2018-05-10T21:57:45.228Z,13.98
2018-05-10T22:00:11.286Z,16.98
2018-05-10T22:02:37.338Z,14.33
2018-05-10T22:05:03.438Z,17.40
2018-05-10T22:07:29.477Z,17.33
2018-05-10T22:09:55.534Z,11.65
2018-05-10T22:12:21.591Z,16.63
2018-05-10T22:14:47.678Z,17.73
2018-05-10T22:17:13.753Z,15.00
2018-05-10T22:19:39.829Z,18.40
2018-05-10T22:22:05.865Z,14.15
2018-05-10T22:24:31.948Z,14.02
2018-05-10T22:26:58.049Z,15.05
2018-05-10T22:29:31.040Z,15.98
2018-05-10T22:31:57.093Z,20.00
2018-05-10T22:34:23.166Z,13.73
2018-05-10T22:36:49.273Z,16.52
2018-05-10T22:39:15.309Z,18.17
2018-05-10T22:41:41.361Z,16.77
2018-05-10T22:44:07.422Z,12.98
2018-05-10T22:46:33.504Z,14.20
2018-05-10T22:49:00.029Z,17.52
2018-05-10T22:51:26.133Z,14.63
2018-05-10T22:53:52.209Z,14.75
2018-05-10T22:56:18.355Z,11.90
2018-05-10T22:58:45.159Z,17.33
2018-05-10T23:01:11.284Z,19.77
2018-05-10T23:03:37.359Z,16.27
2018-05-10T23:06:03.488Z,19.08
2018-05-10T23:08:29.565Z,15.68
2018-05-10T23:10:56.393Z,14.40
2018-05-10T23:13:22.439Z,15.60
2018-05-10T23:15:49.305Z,13.62
2018-05-10T23:18:16.096Z,13.65
2018-05-10T23:20:42.147Z,16.98
2018-05-10T23:23:08.204Z,14.93
2018-05-10T23:25:34.277Z,18.30
2018-05-10T23:28:00.333Z,20.12
2018-05-10T23:30:26.357Z,18.75
2018-05-10T23:32:53.151Z,18.45
2018-05-10T23:35:19.237Z,13.98
2018-05-10T23:37:46.034Z,19.62
2018-05-10T23:40:12.082Z,12.98
2018-05-10T23:42:38.166Z,15.93
2018-05-10T23:45:05.117Z,14.77
2018-05-10T23:47:31.908Z,13.03
2018-05-10T23:49:57.985Z,12.00
2018-05-10T23:52:24.041Z,14.18
2018-05-10T23:54:50.089Z,14.50
2018-05-10T23:57:16.170Z,10.43
2018-05-10T23:59:42.486Z,13.05
